createdAt,value
2023-07-06T00:02:12.872Z,15.42
2023-07-06T00:05:08.619Z,15.39
2023-07-06T00:09:03.500Z,15.37
2023-07-06T00:11:02.483Z,15.37
2023-07-06T00:17:13.222Z,15.33
2023-07-06T00:27:54.601Z,15.24
2023-07-06T00:31:21.483Z,15.22
2023-07-06T00:32:50.461Z,15.22
2023-07-06T00:34:19.353Z,15.22
2023-07-06T00:36:18.160Z,15.19
2023-07-06T00:39:44.604Z,15.15
2023-07-06T00:44:38.121Z,15.07
2023-07-06T00:45:38.169Z,15.07
2023-07-06T00:46:38.461Z,15.09
2023-07-06T00:51:59.551Z,15.00
2023-07-06T01:05:40.766Z,14.88
2023-07-06T01:12:01.383Z,14.88
2023-07-06T01:15:00.451Z,14.86
2023-07-06T01:21:23.534Z,14.82
2023-07-06T01:22:52.763Z,14.79
2023-07-06T01:25:48.920Z,14.81
2023-07-06T01:30:12.593Z,14.82
2023-07-06T01:32:11.502Z,14.81
2023-07-06T01:45:55.453Z,14.92
2023-07-06T01:48:52.967Z,14.92
2023-07-06T02:00:03.900Z,14.99
2023-07-06T02:01:32.787Z,15.03
2023-07-06T02:06:53.375Z,15.07
2023-07-06T02:12:13.943Z,15.14
2023-07-06T02:14:40.784Z,15.17
2023-07-06T02:19:05.645Z,15.19
2023-07-06T02:21:03.522Z,15.18
2023-07-06T02:24:00.268Z,15.18
2023-07-06T02:28:29.688Z,15.24
2023-07-06T02:29:58.597Z,15.24
2023-07-06T02:40:15.384Z,15.29
2023-07-06T02:43:43.069Z,15.31
2023-07-06T02:45:11.989Z,15.35
2023-07-06T02:50:54.414Z,15.39
2023-07-06T02:52:53.256Z,15.37
2023-07-06T03:00:13.367Z,15.40
2023-07-06T03:02:11.179Z,15.43
2023-07-06T03:04:39.005Z,15.43
2023-07-06T03:08:35.846Z,15.43
2023-07-06T03:14:48.886Z,15.40
2023-07-06T03:16:19.692Z,15.37
2023-07-06T03:19:14.713Z,15.33
2023-07-06T03:20:43.637Z,15.33
2023-07-06T03:21:43.555Z,15.35
2023-07-06T03:22:43.553Z,15.37
2023-07-06T03:29:44.077Z,15.37
2023-07-06T03:34:39.561Z,15.36
2023-07-06T03:38:34.074Z,15.35
2023-07-06T03:40:03.966Z,15.37
2023-07-06T03:42:03.043Z,15.31
2023-07-06T03:43:32.042Z,15.31
2023-07-06T03:46:56.661Z,15.33
2023-07-06T03:50:53.391Z,15.35
2023-07-06T03:55:18.615Z,15.29
2023-07-06T04:01:40.776Z,15.31
2023-07-06T04:06:36.157Z,15.33
2023-07-06T04:08:35.921Z,15.33
2023-07-06T04:11:04.099Z,15.35
2023-07-06T04:14:29.718Z,15.31
2023-07-06T04:15:58.919Z,15.29
2023-07-06T04:29:37.750Z,15.37
2023-07-06T04:31:35.610Z,15.31
2023-07-06T04:35:30.302Z,15.33
2023-07-06T04:36:59.519Z,15.36
2023-07-06T04:38:29.369Z,15.36
2023-07-06T04:41:28.112Z,15.40
2023-07-06T04:44:27.097Z,15.42
2023-07-06T04:47:25.040Z,15.47
2023-07-06T05:03:52.338Z,15.52
2023-07-06T05:10:48.422Z,15.64
2023-07-06T05:13:44.797Z,15.72
2023-07-06T05:16:12.487Z,15.72
2023-07-06T05:21:37.650Z,15.73
2023-07-06T05:27:59.366Z,15.80
2023-07-06T05:33:24.791Z,15.86
2023-07-06T05:37:54.362Z,15.90
2023-07-06T05:41:19.848Z,15.95
2023-07-06T05:43:48.556Z,15.97
2023-07-06T05:51:08.578Z,16.08
2023-07-06T05:55:03.358Z,16.12
2023-07-06T05:59:56.845Z,16.12
2023-07-06T06:05:50.972Z,16.13
2023-07-06T06:07:20.208Z,16.17
2023-07-06T06:16:36.576Z,16.33
2023-07-06T06:19:03.524Z,16.39
2023-07-06T06:26:52.777Z,16.38
2023-07-06T06:29:20.746Z,16.42
2023-07-06T06:30:50.600Z,16.46
2023-07-06T06:33:47.434Z,16.46
2023-07-06T06:41:25.532Z,16.56
2023-07-06T06:42:54.347Z,16.61
2023-07-06T06:47:18.973Z,16.66
2023-07-06T06:48:47.777Z,16.68
2023-07-06T06:50:45.890Z,16.74
2023-07-06T06:52:43.998Z,16.74
2023-07-06T07:00:22.733Z,16.78
2023-07-06T07:05:36.379Z,16.93
2023-07-06T07:09:31.090Z,16.99
2023-07-06T07:13:55.196Z,17.09
2023-07-06T07:20:16.548Z,17.16
2023-07-06T07:27:08.077Z,17.34
2023-07-06T07:30:38.924Z,17.38
2023-07-06T07:33:05.949Z,17.42
2023-07-06T07:36:02.727Z,17.46
2023-07-06T07:37:32.907Z,17.48
2023-07-06T07:41:28.362Z,17.46
2023-07-06T07:43:55.076Z,17.54
2023-07-06T07:45:53.054Z,17.54
2023-07-06T07:47:21.921Z,17.59
2023-07-06T07:50:19.114Z,17.71
2023-07-06T07:53:15.043Z,17.83
2023-07-06T07:55:13.778Z,17.95
2023-07-06T07:58:40.868Z,18.13
2023-07-06T08:00:09.710Z,18.16
2023-07-06T08:01:38.711Z,18.23
2023-07-06T08:03:08.590Z,18.33
2023-07-06T08:08:03.147Z,18.55
2023-07-06T08:11:00.183Z,18.60
2023-07-06T08:13:59.286Z,18.74
2023-07-06T08:15:58.388Z,18.84
2023-07-06T08:19:38.032Z,19.00
2023-07-06T08:21:36.158Z,19.09
2023-07-06T08:24:20.768Z,19.18
2023-07-06T08:25:49.665Z,19.21
2023-07-06T08:28:47.829Z,19.30
2023-07-06T08:31:06.154Z,19.37
2023-07-06T08:40:18.338Z,19.81
2023-07-06T08:43:43.098Z,19.89
2023-07-06T08:56:55.215Z,20.18
2023-07-06T08:59:50.868Z,20.29
2023-07-06T09:01:49.942Z,20.34
2023-07-06T09:07:02.821Z,20.51
2023-07-06T09:18:51.649Z,20.66
2023-07-06T09:21:39.787Z,20.74
2023-07-06T09:24:06.490Z,20.81
2023-07-06T09:25:35.350Z,20.80
2023-07-06T09:30:59.987Z,20.90
2023-07-06T09:35:27.163Z,21.09
2023-07-06T09:38:24.618Z,21.29
2023-07-06T09:43:29.401Z,21.30
2023-07-06T09:45:27.067Z,21.35
2023-07-06T09:50:21.002Z,21.48
2023-07-06T09:51:49.788Z,21.51
2023-07-06T09:53:50.038Z,21.51
2023-07-06T09:55:18.835Z,21.48
2023-07-06T10:00:45.465Z,21.66
2023-07-06T10:04:43.146Z,21.82
2023-07-06T10:06:31.412Z,21.75
2023-07-06T10:08:30.212Z,21.70
2023-07-06T10:10:59.010Z,21.80
2023-07-06T10:12:57.104Z,21.85
2023-07-06T10:15:56.081Z,21.83
2023-07-06T10:18:51.538Z,22.04
2023-07-06T10:23:15.541Z,22.30
2023-07-06T10:24:45.632Z,22.38
2023-07-06T10:35:33.491Z,22.70
2023-07-06T10:37:32.294Z,22.81
2023-07-06T10:39:31.105Z,22.85
2023-07-06T10:43:26.777Z,22.80
2023-07-06T10:45:54.718Z,22.84
2023-07-06T10:48:52.305Z,22.80
2023-07-06T10:51:19.999Z,22.93
2023-07-06T10:53:18.730Z,23.08
2023-07-06T10:55:17.215Z,22.99
2023-07-06T11:02:59.559Z,23.17
2023-07-06T11:05:30.334Z,23.36
2023-07-06T11:06:57.040Z,23.48
2023-07-06T11:08:25.892Z,23.65
2023-07-06T11:09:55.024Z,23.77
2023-07-06T11:11:53.054Z,23.86
2023-07-06T11:12:53.071Z,23.91
2023-07-06T11:13:53.007Z,23.98
2023-07-06T11:16:51.072Z,24.11
2023-07-06T11:23:16.442Z,24.24
2023-07-06T11:26:42.415Z,24.21
2023-07-06T11:31:34.821Z,24.23
2023-07-06T11:33:33.621Z,24.23
2023-07-06T11:37:01.783Z,24.26
2023-07-06T11:40:28.750Z,24.43
2023-07-06T11:42:29.476Z,24.60
2023-07-06T11:44:59.311Z,24.93
2023-07-06T11:49:44.873Z,25.16
2023-07-06T11:51:42.820Z,25.35
2023-07-06T11:55:39.372Z,25.25
2023-07-06T11:57:37.185Z,25.33
2023-07-06T11:59:09.126Z,25.38
2023-07-06T12:02:04.858Z,25.36
2023-07-06T12:03:33.948Z,25.35
2023-07-06T12:08:02.531Z,25.47
2023-07-06T12:10:03.501Z,25.53
2023-07-06T12:11:32.316Z,25.69
2023-07-06T12:13:04.122Z,25.83
2023-07-06T12:16:35.059Z,25.83
2023-07-06T12:18:06.810Z,25.81
2023-07-06T12:22:32.232Z,25.53
2023-07-06T12:28:55.755Z,25.40
2023-07-06T12:34:20.225Z,25.70
2023-07-06T12:42:10.432Z,26.37
2023-07-06T12:44:41.042Z,26.25
2023-07-06T12:47:09.250Z,26.15
2023-07-06T12:50:07.741Z,26.16
2023-07-06T12:54:12.956Z,26.19
2023-07-06T12:56:42.959Z,26.31
2023-07-06T12:58:43.947Z,26.48
2023-07-06T13:00:12.864Z,26.48
2023-07-06T13:05:09.360Z,26.60
2023-07-06T13:10:26.452Z,26.60
2023-07-06T13:13:23.204Z,26.44
2023-07-06T13:17:48.498Z,26.63
2023-07-06T13:20:46.241Z,26.75
2023-07-06T13:23:15.917Z,26.88
2023-07-06T13:24:44.817Z,26.95
2023-07-06T13:26:43.614Z,27.00
2023-07-06T13:32:40.938Z,27.51
2023-07-06T13:39:32.553Z,27.63
2023-07-06T13:47:12.804Z,27.15
2023-07-06T13:50:37.382Z,27.32
2023-07-06T13:52:06.285Z,27.22
2023-07-06T13:54:05.037Z,26.96
2023-07-06T13:57:02.028Z,26.96
2023-07-06T13:59:58.997Z,27.08
2023-07-06T14:02:55.714Z,27.14
2023-07-06T14:11:14.525Z,27.39
2023-07-06T14:13:44.778Z,27.58
2023-07-06T14:19:31.200Z,27.47
2023-07-06T14:24:23.778Z,26.83
2023-07-06T14:26:21.830Z,26.85
2023-07-06T14:31:14.844Z,27.22
2023-07-06T14:33:42.489Z,27.22
2023-07-06T14:38:08.854Z,27.00
2023-07-06T14:40:35.722Z,26.97
2023-07-06T14:42:33.485Z,26.78
2023-07-06T14:44:03.396Z,26.74
2023-07-06T14:48:26.967Z,26.56
2023-07-06T14:50:26.105Z,26.44
2023-07-06T14:56:48.189Z,25.66
2023-07-06T15:01:42.778Z,25.41
2023-07-06T15:10:21.009Z,24.93
2023-07-06T15:13:47.613Z,24.58
2023-07-06T15:16:15.160Z,24.47
2023-07-06T15:18:13.964Z,24.47
2023-07-06T15:20:12.737Z,24.39
2023-07-06T15:22:11.495Z,24.33
2023-07-06T15:26:08.126Z,24.03
2023-07-06T15:30:02.619Z,23.95
2023-07-06T15:33:02.526Z,24.05
2023-07-06T15:41:50.904Z,24.03
2023-07-06T15:43:49.806Z,24.02
2023-07-06T15:46:47.027Z,23.87
2023-07-06T15:48:15.868Z,23.83
2023-07-06T15:50:13.575Z,23.76
2023-07-06T15:53:10.697Z,23.80
2023-07-06T15:58:02.520Z,24.06
2023-07-06T16:02:26.994Z,24.01
2023-07-06T16:03:55.972Z,24.06
2023-07-06T16:05:25.746Z,24.13
2023-07-06T16:08:24.285Z,24.29
2023-07-06T16:09:53.150Z,24.39
2023-07-06T16:12:50.884Z,24.53
2023-07-06T16:14:21.233Z,24.61
2023-07-06T16:15:50.014Z,24.73
2023-07-06T16:27:36.769Z,25.21
2023-07-06T16:29:34.976Z,25.31
2023-07-06T16:34:28.925Z,25.43
2023-07-06T16:37:55.220Z,25.47
2023-07-06T16:40:22.663Z,25.59
2023-07-06T16:41:52.566Z,25.59
2023-07-06T16:44:22.494Z,25.53
2023-07-06T16:47:45.214Z,25.55
2023-07-06T16:50:15.017Z,25.54
2023-07-06T16:54:40.777Z,25.48
2023-07-06T17:00:32.319Z,25.53
2023-07-06T17:03:29.430Z,25.58
2023-07-06T17:13:16.750Z,25.62
2023-07-06T17:20:43.573Z,25.59
2023-07-06T17:23:42.225Z,25.66
2023-07-06T17:28:51.677Z,25.73
2023-07-06T17:35:35.282Z,25.63
2023-07-06T17:37:25.151Z,25.50
2023-07-06T17:38:55.073Z,25.43
2023-07-06T17:41:52.910Z,25.14
2023-07-06T17:43:28.021Z,25.08
2023-07-06T17:45:25.798Z,25.01
2023-07-06T17:48:23.615Z,25.01
2023-07-06T17:50:21.384Z,25.06
2023-07-06T18:00:05.810Z,24.89
2023-07-06T18:02:03.692Z,24.88
2023-07-06T18:04:01.755Z,24.85
2023-07-06T18:13:17.216Z,24.70
2023-07-06T18:21:06.373Z,24.57
2023-07-06T18:23:04.594Z,24.55
2023-07-06T18:26:01.578Z,24.51
2023-07-06T18:27:30.610Z,24.51
2023-07-06T18:32:24.002Z,24.42
2023-07-06T18:34:21.787Z,24.36
2023-07-06T18:37:18.102Z,24.36
2023-07-06T18:39:15.937Z,24.36
2023-07-06T18:41:14.696Z,24.33
2023-07-06T18:46:15.248Z,24.28
2023-07-06T18:48:12.213Z,24.23
2023-07-06T18:53:46.232Z,24.11
2023-07-06T18:55:08.616Z,24.10
2023-07-06T18:58:04.757Z,24.02
2023-07-06T19:01:30.525Z,23.99
2023-07-06T19:03:30.591Z,23.98
2023-07-06T19:05:50.089Z,23.93
2023-07-06T19:08:16.804Z,23.86
2023-07-06T19:11:41.382Z,23.76
2023-07-06T19:13:10.331Z,23.73
2023-07-06T19:14:39.493Z,23.69
2023-07-06T19:16:08.717Z,23.65
2023-07-06T19:17:38.278Z,23.59
2023-07-06T19:19:37.305Z,23.51
2023-07-06T19:22:34.100Z,23.39
2023-07-06T19:24:31.959Z,23.28
2023-07-06T19:27:59.901Z,23.13
2023-07-06T19:29:28.990Z,23.08
2023-07-06T19:31:27.901Z,22.99
2023-07-06T19:34:56.698Z,22.87
2023-07-06T19:38:22.196Z,22.73
2023-07-06T19:40:50.150Z,22.65
2023-07-06T19:43:17.832Z,22.55
2023-07-06T19:45:46.692Z,22.50
2023-07-06T19:48:05.743Z,22.43
2023-07-06T19:53:47.614Z,22.18
2023-07-06T19:55:46.306Z,22.11
2023-07-06T19:57:45.788Z,22.02
2023-07-06T19:59:42.311Z,21.98
2023-07-06T20:01:43.426Z,21.89
2023-07-06T20:03:12.284Z,21.83
2023-07-06T20:06:41.262Z,21.72
2023-07-06T20:08:10.387Z,21.67
2023-07-06T20:10:38.254Z,21.61
2023-07-06T20:13:55.783Z,21.50
2023-07-06T20:15:54.755Z,21.43
2023-07-06T20:21:46.410Z,21.24
2023-07-06T20:23:15.016Z,21.20
2023-07-06T20:26:02.712Z,21.15
2023-07-06T20:31:55.606Z,20.99
2023-07-06T20:33:24.534Z,20.97
2023-07-06T20:34:56.386Z,20.93
2023-07-06T20:37:53.073Z,20.85
2023-07-06T20:40:24.679Z,20.81
2023-07-06T20:41:53.757Z,20.80
2023-07-06T20:44:21.858Z,20.77
2023-07-06T20:52:25.652Z,20.51
2023-07-06T20:54:23.679Z,20.50
2023-07-06T20:58:25.024Z,20.41
2023-07-06T21:01:52.261Z,20.36
2023-07-06T21:04:20.013Z,20.32
2023-07-06T21:07:15.714Z,20.24
2023-07-06T21:08:45.687Z,20.19
2023-07-06T21:10:43.702Z,20.13
2023-07-06T21:13:14.725Z,20.09
2023-07-06T21:15:14.961Z,20.04
2023-07-06T21:16:44.918Z,20.00
2023-07-06T21:18:42.715Z,19.95
2023-07-06T21:22:38.390Z,19.85
2023-07-06T21:24:07.303Z,19.84
2023-07-06T21:26:07.031Z,19.77
2023-07-06T21:29:08.807Z,19.73
2023-07-06T21:31:26.353Z,19.71
2023-07-06T21:32:55.263Z,19.67
2023-07-06T21:34:24.090Z,19.64
2023-07-06T21:36:23.037Z,19.58
2023-07-06T21:38:22.262Z,19.54
2023-07-06T21:39:52.676Z,19.51
2023-07-06T21:44:16.792Z,19.40
2023-07-06T21:46:15.686Z,19.40
2023-07-06T21:52:37.316Z,19.29
2023-07-06T21:55:33.945Z,19.24
2023-07-06T21:57:03.802Z,19.24
2023-07-06T22:00:31.644Z,19.15
2023-07-06T22:02:29.499Z,19.14
2023-07-06T22:04:56.582Z,19.11
2023-07-06T22:17:27.133Z,18.90
2023-07-06T22:21:50.719Z,18.84
2023-07-06T22:25:46.056Z,18.80
2023-07-06T22:27:14.908Z,18.78
2023-07-06T22:28:43.876Z,18.77
2023-07-06T22:31:32.359Z,18.77
2023-07-06T22:33:02.810Z,18.75
2023-07-06T22:35:30.101Z,18.73
2023-07-06T22:37:57.896Z,18.68
2023-07-06T22:41:24.593Z,18.60
2023-07-06T22:43:52.383Z,18.58
2023-07-06T22:45:21.254Z,18.55
2023-07-06T22:46:50.246Z,18.53
2023-07-06T22:50:48.731Z,18.47
2023-07-06T22:52:17.428Z,18.44
2023-07-06T22:54:15.688Z,18.41
2023-07-06T22:58:11.826Z,18.35
2023-07-06T23:01:08.565Z,18.31
2023-07-06T23:03:37.345Z,18.25
2023-07-06T23:22:17.758Z,18.01
2023-07-06T23:25:45.998Z,17.98
2023-07-06T23:28:40.372Z,17.98
2023-07-06T23:31:07.071Z,17.95
2023-07-06T23:33:33.755Z,17.97
2023-07-06T23:38:29.168Z,17.98
2023-07-06T23:41:55.387Z,18.01
2023-07-06T23:44:53.486Z,18.03
2023-07-06T23:47:50.146Z,18.00
2023-07-06T23:59:00.401Z,17.92
